EZY339 EGGP-EGSS
Flight info
| Callsign | EZY339 |
|---|---|
| Flight time | 0h 15m |
| Altitude | 19000 |
| Route | NANTI L8 HON L15 FINMA |
| Aircraft | A20N/M-SDE2E3FGHIRWXY/LB1 |
Departure
| Time | 2026-04-30 19:37 |
|---|---|
| Airport | Liverpool John Lennon Airport (EGGP) |
Arrival
| Time | 2026-04-30 19:52 |
|---|---|
| Airport | London Stansted Airport (EGSS) |
| Time | Latitude | Longitude | Altitude | Speed | Heading |
|---|---|---|---|---|---|
| 2026-04-30 19:26 | 53.33584 | -2.85192 | 69 ft | 0 kts | 265° |
| 2026-04-30 19:32 | 53.33585 | -2.85170 | 91 ft | 4 kts | 260° |
| 2026-04-30 19:33 | 53.33596 | -2.85114 | 90 ft | 5 kts | 232° |
| 2026-04-30 19:33 | 53.33631 | -2.85076 | 91 ft | 7 kts | 180° |
| 2026-04-30 19:33 | 53.33635 | -2.85076 | 91 ft | 0 kts | 172° |
| 2026-04-30 19:34 | 53.33610 | -2.85072 | 91 ft | 14 kts | 176° |
| 2026-04-30 19:34 | 53.33533 | -2.85101 | 92 ft | 8 kts | 242° |
| 2026-04-30 19:34 | 53.33501 | -2.85590 | 90 ft | 21 kts | 266° |
| 2026-04-30 19:35 | 53.33491 | -2.85833 | 89 ft | 21 kts | 265° |
| 2026-04-30 19:35 | 53.33478 | -2.86071 | 88 ft | 20 kts | 265° |
| 2026-04-30 19:35 | 53.33466 | -2.86304 | 91 ft | 20 kts | 264° |
| 2026-04-30 19:35 | 53.33386 | -2.86422 | 88 ft | 17 kts | 180° |
| 2026-04-30 19:36 | 53.33303 | -2.86328 | 88 ft | 12 kts | 96° |
| 2026-04-30 19:36 | 53.33305 | -2.86276 | 88 ft | 0 kts | 84° |
| 2026-04-30 19:36 | 53.33354 | -2.85028 | 92 ft | 133 kts | 85° |
| 2026-04-30 19:37 | 53.33374 | -2.83271 | 658 ft | 147 kts | 100° |
| 2026-04-30 19:37 | 53.33337 | -2.81603 | 1793 ft | 142 kts | 91° |
| 2026-04-30 19:37 | 53.33394 | -2.79844 | 2430 ft | 165 kts | 101° |
| 2026-04-30 19:37 | 53.32882 | -2.77985 | 2672 ft | 197 kts | 135° |
| 2026-04-30 19:38 | 53.31717 | -2.76454 | 3068 ft | 225 kts | 146° |
| 2026-04-30 19:38 | 53.30352 | -2.75003 | 3660 ft | 238 kts | 148° |
| 2026-04-30 19:38 | 52.52330 | -1.04970 | 12519 ft | 432 kts | 139° |
| 2026-04-30 19:39 | 52.51295 | -1.03414 | 13054 ft | 403 kts | 138° |
| 2026-04-30 19:39 | 52.49620 | -1.00862 | 15968 ft | 305 kts | 138° |
| 2026-04-30 19:39 | 52.48123 | -0.98568 | 16070 ft | 295 kts | 138° |
| 2026-04-30 19:39 | 52.46552 | -0.96170 | 16340 ft | 328 kts | 138° |
| 2026-04-30 19:40 | 52.44820 | -0.93544 | 16925 ft | 346 kts | 139° |
| 2026-04-30 19:40 | 52.42946 | -0.91000 | 17826 ft | 354 kts | 142° |
| 2026-04-30 19:40 | 52.40982 | -0.88494 | 18594 ft | 360 kts | 143° |
| 2026-04-30 19:40 | 52.39051 | -0.86093 | 18561 ft | 339 kts | 144° |
| 2026-04-30 19:41 | 52.37198 | -0.83840 | 18300 ft | 324 kts | 144° |
| 2026-04-30 19:41 | 52.35415 | -0.81699 | 18060 ft | 310 kts | 144° |
| 2026-04-30 19:41 | 52.33719 | -0.79625 | 17823 ft | 298 kts | 140° |
| 2026-04-30 19:41 | 52.32427 | -0.77072 | 17611 ft | 288 kts | 127° |
| 2026-04-30 19:42 | 52.31101 | -0.74730 | 17395 ft | 275 kts | 143° |
| 2026-04-30 19:42 | 52.29478 | -0.73103 | 16936 ft | 275 kts | 153° |
| 2026-04-30 19:42 | 52.27622 | -0.71701 | 16444 ft | 318 kts | 156° |
| 2026-04-30 19:42 | 52.25455 | -0.70266 | 15917 ft | 348 kts | 159° |
| 2026-04-30 19:43 | 52.23149 | -0.68876 | 15384 ft | 356 kts | 160° |
| 2026-04-30 19:43 | 52.20776 | -0.67484 | 14921 ft | 374 kts | 160° |
| 2026-04-30 19:43 | 52.18244 | -0.65996 | 14444 ft | 397 kts | 160° |
| 2026-04-30 19:44 | 52.13017 | -0.62906 | 13223 ft | 397 kts | 160° |
| 2026-04-30 19:44 | 52.10475 | -0.61401 | 12493 ft | 394 kts | 160° |
| 2026-04-30 19:44 | 52.07910 | -0.59728 | 11733 ft | 389 kts | 154° |
| 2026-04-30 19:44 | 52.05584 | -0.57626 | 11042 ft | 386 kts | 148° |
| 2026-04-30 19:45 | 52.03364 | -0.55188 | 10336 ft | 383 kts | 146° |
| 2026-04-30 19:45 | 52.01204 | -0.52708 | 9598 ft | 379 kts | 145° |
| 2026-04-30 19:45 | 51.99049 | -0.50221 | 8833 ft | 376 kts | 145° |
| 2026-04-30 19:45 | 51.96948 | -0.47800 | 8104 ft | 372 kts | 145° |
| 2026-04-30 19:46 | 51.94933 | -0.45215 | 7368 ft | 368 kts | 138° |
| 2026-04-30 19:46 | 51.93125 | -0.42267 | 6660 ft | 365 kts | 133° |
| 2026-04-30 19:46 | 51.91434 | -0.39157 | 5903 ft | 362 kts | 131° |
| 2026-04-30 19:46 | 51.89860 | -0.36077 | 5187 ft | 359 kts | 130° |
| 2026-04-30 19:47 | 51.88420 | -0.32764 | 4424 ft | 358 kts | 121° |
| 2026-04-30 19:47 | 51.87659 | -0.30437 | 4210 ft | 347 kts | 118° |
| 2026-04-30 19:47 | 51.86538 | -0.25671 | 3422 ft | 334 kts | 109° |
| 2026-04-30 19:47 | 51.85961 | -0.22093 | 3083 ft | 326 kts | 106° |
| 2026-04-30 19:48 | 51.85485 | -0.18620 | 3003 ft | 325 kts | 104° |
| 2026-04-30 19:48 | 51.85044 | -0.14933 | 2995 ft | 325 kts | 103° |
| 2026-04-30 19:48 | 51.84673 | -0.11373 | 2999 ft | 326 kts | 102° |
| 2026-04-30 19:48 | 51.84310 | -0.07756 | 3012 ft | 326 kts | 102° |
| 2026-04-30 19:49 | 51.83946 | -0.04142 | 3003 ft | 325 kts | 102° |
| 2026-04-30 19:49 | 51.83201 | 0.03058 | 2993 ft | 324 kts | 102° |
| 2026-04-30 19:49 | 51.82846 | 0.06561 | 3008 ft | 302 kts | 102° |
| 2026-04-30 19:50 | 51.82531 | 0.09784 | 2921 ft | 279 kts | 102° |
| 2026-04-30 19:50 | 51.82254 | 0.12758 | 2667 ft | 258 kts | 102° |
| 2026-04-30 19:50 | 51.82669 | 0.14464 | 2549 ft | 243 kts | 50° |
| 2026-04-30 19:50 | 51.83625 | 0.16165 | 1846 ft | 235 kts | 45° |
| 2026-04-30 19:51 | 51.84714 | 0.17518 | 1172 ft | 221 kts | 52° |
| 2026-04-30 19:51 | 51.85565 | 0.19026 | 943 ft | 195 kts | 51° |
| 2026-04-30 19:51 | 51.86485 | 0.20454 | 691 ft | 171 kts | 45° |
| 2026-04-30 19:51 | 51.87333 | 0.21709 | 456 ft | 157 kts | 47° |
| 2026-04-30 19:52 | 51.88082 | 0.22843 | 360 ft | 141 kts | 46° |
| 2026-04-30 19:52 | 51.88712 | 0.23799 | 340 ft | 94 kts | 43° |
| 2026-04-30 19:52 | 51.88996 | 0.24234 | 344 ft | 33 kts | 47° |
| 2026-04-30 19:52 | 51.89105 | 0.24549 | 349 ft | 31 kts | 68° |
| 2026-04-30 19:53 | 51.89150 | 0.24727 | 352 ft | 0 kts | 67° |
| 2026-04-30 19:53 | 51.89165 | 0.24787 | 347 ft | 13 kts | 72° |
| 2026-04-30 19:53 | 51.89175 | 0.24966 | 347 ft | 20 kts | 53° |
| 2026-04-30 19:54 | 51.89237 | 0.25159 | 347 ft | 19 kts | 108° |
| 2026-04-30 19:54 | 51.89155 | 0.25325 | 350 ft | 19 kts | 135° |
| 2026-04-30 19:54 | 51.89063 | 0.25481 | 348 ft | 18 kts | 131° |
| 2026-04-30 19:54 | 51.88987 | 0.25613 | 347 ft | 12 kts | 135° |
| 2026-04-30 19:55 | 51.88971 | 0.25670 | 352 ft | 6 kts | 78° |
| 2026-04-30 19:55 | 51.89002 | 0.25739 | 348 ft | 6 kts | 45° |
| 2026-04-30 19:55 | 51.89012 | 0.25754 | 352 ft | 0 kts | 44° |